Time;durP1;ratioP1;P1;durP2;ratioP2;P2;SDS_P1;SDS_P2;PMS_P1;PMS_P2;Temp;Humidity;BMP_temperature;BMP_pressure;BME280_temperature;BME280_humidity;BME280_pressure;Samples;Min_cycle;Max_cycle;Signal;HPM_P1;HPM_P2
2021/08/05 00:02:12;;;;;;;5.47;2.75;;;;;;;;;;5046036;28;20181;-84
2021/08/05 00:04:38;;;;;;;2.47;2.28;;;;;;;;;;5028425;28;20194;-83
2021/08/05 00:07:04;;;;;;;3.53;2.80;;;;;;;;;;5033608;28;20179;-84
2021/08/05 00:09:30;;;;;;;3.72;2.80;;;;;;;;;;5033954;28;20206;-83
2021/08/05 00:11:56;;;;;;;3.05;2.75;;;;;;;;;;5032969;28;20240;-83
2021/08/05 00:14:22;;;;;;;4.15;3.30;;;;;;;;;;5033404;28;20263;-84
2021/08/05 00:16:48;;;;;;;3.20;2.90;;;;;;;;;;5043817;28;20170;-84
2021/08/05 00:19:14;;;;;;;3.50;2.97;;;;;;;;;;5031443;28;20481;-84
2021/08/05 00:21:40;;;;;;;3.30;2.33;;;;;;;;;;5032354;28;20704;-84
2021/08/05 00:24:06;;;;;;;3.40;2.37;;;;;;;;;;5033838;28;20179;-83
2021/08/05 00:26:32;;;;;;;3.83;2.50;;;;;;;;;;5034904;28;20468;-84
2021/08/05 00:28:58;;;;;;;3.10;2.80;;;;;;;;;;5045306;28;20193;-84
2021/08/05 00:31:24;;;;;;;2.97;2.38;;;;;;;;;;5029042;28;20461;-84
2021/08/05 00:33:50;;;;;;;3.03;2.73;;;;;;;;;;5033956;28;20182;-84
2021/08/05 00:36:17;;;;;;;5.10;3.10;;;;;;;;;;5035072;28;20447;-84
2021/08/05 00:38:43;;;;;;;2.63;2.42;;;;;;;;;;5043963;28;20507;-83
2021/08/05 00:41:09;;;;;;;3.60;2.72;;;;;;;;;;5029270;28;20188;-83
2021/08/05 00:43:35;;;;;;;3.35;2.50;;;;;;;;;;5028401;28;20187;-84
2021/08/05 00:46:04;;;;;;;3.67;2.85;;;;;;;;;;5033037;28;20181;-84
2021/08/05 00:48:30;;;;;;;3.17;2.88;;;;;;;;;;5033926;28;20183;-84
2021/08/05 00:50:58;;;;;;;2.70;2.50;;;;;;;;;;5036940;28;20213;-84
2021/08/05 00:53:24;;;;;;;3.95;2.60;;;;;;;;;;5045914;28;20177;-84
2021/08/05 00:55:50;;;;;;;2.60;2.22;;;;;;;;;;5042312;28;20192;-84
2021/08/05 00:58:16;;;;;;;4.30;2.97;;;;;;;;;;5057385;28;20166;-84
2021/08/05 01:00:45;;;;;;;2.87;2.63;;;;;;;;;;5038426;28;20196;-84
2021/08/05 01:03:21;;;;;;;3.70;2.60;;;;;;;;;;5040886;28;20495;-81
2021/08/05 01:05:49;;;;;;;3.05;2.58;;;;;;;;;;5033665;28;20186;-84
2021/08/05 01:08:18;;;;;;;2.90;2.60;;;;;;;;;;5030770;28;20648;-83
2021/08/05 01:10:49;;;;;;;3.40;2.55;;;;;;;;;;5043337;28;20205;-84
2021/08/05 01:13:28;;;;;;;2.60;2.40;;;;;;;;;;5030795;28;20202;-84
2021/08/05 01:15:54;;;;;;;3.03;2.65;;;;;;;;;;5031567;28;20685;-84
2021/08/05 01:18:26;;;;;;;7.95;2.65;;;;;;;;;;5033281;28;20304;-85
2021/08/05 01:20:53;;;;;;;4.13;2.60;;;;;;;;;;5033422;28;20192;-83
2021/08/05 01:23:38;;;;;;;2.55;2.30;;;;;;;;;;5045422;28;20181;-83
2021/08/05 01:26:07;;;;;;;2.95;2.63;;;;;;;;;;5029477;28;20186;-84
2021/08/05 01:28:33;;;;;;;2.47;2.20;;;;;;;;;;5035709;28;20269;-84
2021/08/05 01:31:01;;;;;;;2.55;2.35;;;;;;;;;;5044506;28;20236;-84
2021/08/05 01:33:27;;;;;;;3.47;3.03;;;;;;;;;;5036414;28;20593;-84
2021/08/05 01:35:53;;;;;;;3.25;2.13;;;;;;;;;;5034050;28;20224;-84
2021/08/05 01:38:20;;;;;;;4.75;3.05;;;;;;;;;;5031261;28;20227;-84
2021/08/05 01:40:47;;;;;;;7.07;2.50;;;;;;;;;;5042006;28;20608;-83
2021/08/05 01:43:14;;;;;;;5.43;2.53;;;;;;;;;;5038486;28;20181;-84
2021/08/05 01:45:40;;;;;;;3.00;2.70;;;;;;;;;;5036408;28;20182;-84
2021/08/05 01:48:09;;;;;;;3.55;2.78;;;;;;;;;;5033239;28;20178;-84
2021/08/05 01:50:36;;;;;;;3.30;2.83;;;;;;;;;;5033627;28;20561;-84
2021/08/05 01:53:02;;;;;;;4.20;3.33;;;;;;;;;;5044880;28;20177;-84
2021/08/05 01:55:28;;;;;;;4.25;3.28;;;;;;;;;;5042915;28;20280;-84
2021/08/05 01:57:57;;;;;;;3.35;2.92;;;;;;;;;;5043354;28;20208;-84
2021/08/05 02:00:23;;;;;;;5.93;3.63;;;;;;;;;;5037483;28;20179;-83
2021/08/05 02:02:53;;;;;;;3.97;3.58;;;;;;;;;;5033948;28;20185;-84
2021/08/05 02:05:33;;;;;;;3.47;2.88;;;;;;;;;;5031494;28;20184;-84
2021/08/05 02:08:03;;;;;;;3.15;2.85;;;;;;;;;;5027192;28;20180;-84
2021/08/05 02:10:36;;;;;;;7.85;3.13;;;;;;;;;;5041821;28;20205;-84
2021/08/05 02:13:07;;;;;;;4.00;3.20;;;;;;;;;;5044583;28;20768;-84
2021/08/05 02:15:35;;;;;;;3.30;3.00;;;;;;;;;;5045636;28;20692;-83
2021/08/05 02:18:03;;;;;;;3.55;3.25;;;;;;;;;;5042240;28;20214;-84
2021/08/05 02:20:29;;;;;;;3.13;2.67;;;;;;;;;;5042487;28;20221;-83
2021/08/05 02:22:55;;;;;;;3.22;2.65;;;;;;;;;;5029499;28;20244;-84
2021/08/05 02:25:21;;;;;;;3.13;2.63;;;;;;;;;;5034674;28;20213;-83
2021/08/05 02:27:48;;;;;;;2.72;2.53;;;;;;;;;;5035406;28;20174;-84
2021/08/05 02:30:14;;;;;;;3.25;2.63;;;;;;;;;;5041940;28;20206;-84
2021/08/05 02:32:40;;;;;;;4.43;3.00;;;;;;;;;;5048493;28;20197;-80
2021/08/05 02:35:08;;;;;;;3.40;3.20;;;;;;;;;;5047244;28;20177;-83
2021/08/05 02:37:35;;;;;;;2.80;2.60;;;;;;;;;;5030890;28;20178;-83
2021/08/05 02:40:01;;;;;;;3.50;2.97;;;;;;;;;;5037265;28;20209;-83
2021/08/05 02:42:28;;;;;;;3.85;3.15;;;;;;;;;;5033634;28;20209;-83
2021/08/05 02:44:55;;;;;;;7.88;2.70;;;;;;;;;;5037028;28;20219;-83
2021/08/05 02:47:21;;;;;;;3.13;2.85;;;;;;;;;;5033174;28;20189;-84
2021/08/05 02:49:48;;;;;;;4.28;2.42;;;;;;;;;;5045226;28;20232;-83
2021/08/05 02:52:14;;;;;;;3.63;2.35;;;;;;;;;;5039272;28;20236;-84
2021/08/05 02:54:40;;;;;;;6.60;3.17;;;;;;;;;;5045700;28;20181;-84
2021/08/05 02:57:06;;;;;;;3.50;3.03;;;;;;;;;;5042291;28;20419;-83
2021/08/05 02:59:32;;;;;;;3.30;3.00;;;;;;;;;;5036183;28;20181;-84
2021/08/05 03:01:59;;;;;;;4.70;3.70;;;;;;;;;;5046665;28;20221;-84
2021/08/05 03:04:30;;;;;;;6.53;3.03;;;;;;;;;;5046894;28;20174;-84
2021/08/05 03:06:56;;;;;;;3.35;3.00;;;;;;;;;;5045860;28;20610;-84
2021/08/05 03:09:22;;;;;;;5.20;3.40;;;;;;;;;;5046132;28;20250;-83
2021/08/05 03:11:48;;;;;;;3.47;3.17;;;;;;;;;;5046683;28;20532;-84
2021/08/05 03:14:14;;;;;;;3.60;3.30;;;;;;;;;;5046308;28;20503;-84
2021/08/05 03:16:40;;;;;;;3.80;2.72;;;;;;;;;;5029880;28;20443;-82
2021/08/05 03:19:06;;;;;;;5.80;3.90;;;;;;;;;;5034324;28;20218;-84
2021/08/05 03:21:32;;;;;;;3.87;3.40;;;;;;;;;;5043530;28;20491;-83
2021/08/05 03:23:58;;;;;;;3.72;3.38;;;;;;;;;;5042012;28;20441;-84
2021/08/05 03:26:24;;;;;;;4.40;3.70;;;;;;;;;;5046599;28;20270;-83
2021/08/05 03:28:50;;;;;;;4.60;3.40;;;;;;;;;;5030675;28;20505;-83
2021/08/05 03:31:16;;;;;;;6.50;3.22;;;;;;;;;;5029876;28;20427;-83
2021/08/05 03:33:42;;;;;;;5.03;3.27;;;;;;;;;;5042926;28;20173;-84
2021/08/05 03:36:08;;;;;;;4.03;3.63;;;;;;;;;;5041343;28;20415;-83
2021/08/05 03:38:34;;;;;;;3.75;3.45;;;;;;;;;;5035409;28;20907;-84
2021/08/05 03:41:01;;;;;;;3.67;3.20;;;;;;;;;;5046048;28;20203;-83
2021/08/05 03:43:27;;;;;;;4.38;3.10;;;;;;;;;;5044127;28;20436;-83
2021/08/05 03:45:55;;;;;;;4.35;3.15;;;;;;;;;;5034853;28;20229;-84
2021/08/05 03:48:21;;;;;;;5.20;3.55;;;;;;;;;;5041576;28;20177;-83
2021/08/05 03:50:47;;;;;;;3.57;3.23;;;;;;;;;;5046429;28;20233;-84
2021/08/05 03:53:13;;;;;;;4.80;3.10;;;;;;;;;;5045122;28;20432;-84
2021/08/05 03:55:39;;;;;;;8.68;3.63;;;;;;;;;;5028337;28;20214;-83
2021/08/05 03:58:07;;;;;;;4.75;3.83;;;;;;;;;;5034740;28;20178;-84
2021/08/05 04:00:33;;;;;;;3.65;3.05;;;;;;;;;;5035516;28;20205;-84
2021/08/05 04:02:59;;;;;;;3.50;3.20;;;;;;;;;;5035193;28;20252;-83
2021/08/05 04:05:25;;;;;;;3.65;3.35;;;;;;;;;;5046573;28;20185;-83
2021/08/05 04:07:51;;;;;;;3.70;3.05;;;;;;;;;;5029302;28;20549;-84
2021/08/05 04:10:17;;;;;;;3.97;3.33;;;;;;;;;;5039630;28;20221;-83
2021/08/05 04:12:43;;;;;;;3.20;2.90;;;;;;;;;;5037903;28;20186;-84
2021/08/05 04:15:09;;;;;;;3.70;3.40;;;;;;;;;;5035767;28;20201;-84
2021/08/05 04:17:36;;;;;;;5.40;3.10;;;;;;;;;;5033899;28;20546;-83
2021/08/05 04:20:03;;;;;;;3.40;3.10;;;;;;;;;;5044028;28;20178;-83
2021/08/05 04:22:29;;;;;;;5.15;3.60;;;;;;;;;;5028466;28;20257;-84
2021/08/05 04:24:55;;;;;;;6.50;3.20;;;;;;;;;;5033331;28;20657;-84
2021/08/05 04:27:21;;;;;;;3.75;3.30;;;;;;;;;;5028784;28;20449;-83
2021/08/05 04:29:47;;;;;;;2.95;2.65;;;;;;;;;;5033343;28;20236;-84
2021/08/05 04:32:13;;;;;;;3.70;3.40;;;;;;;;;;5029613;28;20173;-84
2021/08/05 04:34:39;;;;;;;3.63;3.33;;;;;;;;;;5026362;28;20429;-83
2021/08/05 04:37:05;;;;;;;3.03;2.72;;;;;;;;;;5045527;28;20419;-84
2021/08/05 04:39:32;;;;;;;3.35;3.05;;;;;;;;;;5042971;28;20182;-84
2021/08/05 04:41:58;;;;;;;3.80;3.42;;;;;;;;;;5042706;28;20177;-84
2021/08/05 04:44:24;;;;;;;4.85;3.78;;;;;;;;;;5044252;28;20221;-84
2021/08/05 04:46:50;;;;;;;4.57;3.20;;;;;;;;;;5027730;28;20179;-84
2021/08/05 04:49:16;;;;;;;4.00;3.42;;;;;;;;;;5030856;28;20437;-83
2021/08/05 04:51:42;;;;;;;4.57;3.33;;;;;;;;;;5033887;28;20206;-84
2021/08/05 04:54:08;;;;;;;7.00;3.47;;;;;;;;;;5037885;28;20177;-84
2021/08/05 04:56:34;;;;;;;3.47;3.15;;;;;;;;;;5045954;28;20452;-84
2021/08/05 04:59:00;;;;;;;4.80;3.87;;;;;;;;;;5044677;28;20232;-84
2021/08/05 05:01:26;;;;;;;5.78;3.08;;;;;;;;;;5043897;28;20420;-83
2021/08/05 05:03:52;;;;;;;3.63;3.33;;;;;;;;;;5033982;28;20186;-83
2021/08/05 05:06:18;;;;;;;4.97;3.75;;;;;;;;;;5037146;28;20209;-84
2021/08/05 05:08:44;;;;;;;3.95;3.55;;;;;;;;;;5042202;28;20204;-83
2021/08/05 05:11:10;;;;;;;4.38;3.97;;;;;;;;;;5030717;28;20205;-84
2021/08/05 05:13:36;;;;;;;4.00;3.70;;;;;;;;;;5043068;28;20177;-83
2021/08/05 05:16:02;;;;;;;4.20;3.80;;;;;;;;;;5046074;28;20582;-83
2021/08/05 05:18:28;;;;;;;7.30;3.50;;;;;;;;;;5044183;28;20468;-84
2021/08/05 05:20:54;;;;;;;4.03;3.47;;;;;;;;;;5043165;28;20520;-84
2021/08/05 05:23:21;;;;;;;4.13;3.43;;;;;;;;;;5029466;28;20526;-85
2021/08/05 05:25:47;;;;;;;5.10;4.60;;;;;;;;;;5027200;28;20425;-83
2021/08/05 05:28:14;;;;;;;5.18;4.40;;;;;;;;;;5045764;28;20174;-84
2021/08/05 05:30:42;;;;;;;5.90;3.95;;;;;;;;;;5035958;28;20210;-83
2021/08/05 05:33:08;;;;;;;4.60;4.10;;;;;;;;;;5032654;28;20194;-83
2021/08/05 05:35:34;;;;;;;4.45;4.05;;;;;;;;;;5033447;28;20186;-83
2021/08/05 05:38:00;;;;;;;5.68;4.28;;;;;;;;;;5028126;28;20180;-84
2021/08/05 05:40:26;;;;;;;7.88;5.15;;;;;;;;;;5039308;28;20212;-83
2021/08/05 05:42:55;;;;;;;5.10;4.60;;;;;;;;;;5042494;28;20661;-84
2021/08/05 05:45:22;;;;;;;4.70;4.20;;;;;;;;;;5039655;28;20183;-84
2021/08/05 05:47:48;;;;;;;5.20;4.57;;;;;;;;;;5033017;28;20253;-84
2021/08/05 05:50:15;;;;;;;5.13;4.63;;;;;;;;;;5028766;28;20232;-84
2021/08/05 05:52:42;;;;;;;5.28;4.60;;;;;;;;;;5042985;28;20170;-81
2021/08/05 05:55:08;;;;;;;4.78;4.38;;;;;;;;;;5044981;28;20174;-84
2021/08/05 05:57:35;;;;;;;7.03;5.07;;;;;;;;;;5036335;28;20197;-83
2021/08/05 06:00:01;;;;;;;4.45;4.05;;;;;;;;;;5035187;28;20260;-84
2021/08/05 06:02:27;;;;;;;5.95;3.85;;;;;;;;;;5035833;28;20217;-83
2021/08/05 06:04:53;;;;;;;5.40;4.33;;;;;;;;;;5046223;28;20204;-84
2021/08/05 06:07:19;;;;;;;4.90;4.40;;;;;;;;;;5048943;28;20421;-84
2021/08/05 06:09:45;;;;;;;6.30;4.28;;;;;;;;;;5038852;28;20545;-84
2021/08/05 06:12:11;;;;;;;8.00;5.27;;;;;;;;;;5035212;28;20214;-83
2021/08/05 06:14:37;;;;;;;4.50;4.10;;;;;;;;;;5036850;28;20428;-84
2021/08/05 06:17:03;;;;;;;4.97;4.18;;;;;;;;;;5046828;28;20197;-84
2021/08/05 06:19:29;;;;;;;5.13;4.63;;;;;;;;;;5046724;28;20589;-82
2021/08/05 06:21:55;;;;;;;6.18;4.57;;;;;;;;;;5046402;28;20209;-83
2021/08/05 06:24:22;;;;;;;5.63;4.88;;;;;;;;;;5045513;28;20201;-84
2021/08/05 06:26:51;;;;;;;7.37;4.90;;;;;;;;;;5045870;28;20208;-82
2021/08/05 06:29:17;;;;;;;4.65;4.03;;;;;;;;;;5028369;28;20433;-83
2021/08/05 06:31:43;;;;;;;4.97;4.15;;;;;;;;;;5027497;28;20289;-83
2021/08/05 06:34:09;;;;;;;6.18;4.95;;;;;;;;;;5034488;28;20608;-83
2021/08/05 06:36:36;;;;;;;5.85;4.68;;;;;;;;;;5045503;28;20261;-84
2021/08/05 06:39:03;;;;;;;5.13;4.65;;;;;;;;;;5043557;28;20179;-84
2021/08/05 06:41:30;;;;;;;4.38;3.97;;;;;;;;;;5035851;28;20219;-84
2021/08/05 06:43:56;;;;;;;4.90;4.25;;;;;;;;;;5029681;28;20174;-83
2021/08/05 06:46:22;;;;;;;4.80;4.40;;;;;;;;;;5046421;28;20188;-84
2021/08/05 06:48:48;;;;;;;5.03;4.53;;;;;;;;;;5047418;28;20188;-84
2021/08/05 06:51:14;;;;;;;4.95;4.45;;;;;;;;;;5044773;28;20217;-84
2021/08/05 06:53:40;;;;;;;6.57;4.78;;;;;;;;;;5046296;28;20182;-83
2021/08/05 06:56:06;;;;;;;5.40;4.70;;;;;;;;;;5030924;28;20200;-84
2021/08/05 06:58:32;;;;;;;5.15;4.55;;;;;;;;;;5030853;28;20943;-83
2021/08/05 07:01:00;;;;;;;5.05;4.63;;;;;;;;;;5047174;28;20245;-83
2021/08/05 07:03:26;;;;;;;5.75;4.75;;;;;;;;;;5046771;28;20178;-84
2021/08/05 07:05:52;;;;;;;5.95;4.80;;;;;;;;;;5047239;28;20208;-83
2021/08/05 07:08:18;;;;;;;4.90;4.50;;;;;;;;;;5043503;28;20229;-83
2021/08/05 07:10:44;;;;;;;4.85;4.40;;;;;;;;;;5028163;28;20475;-82
2021/08/05 07:13:10;;;;;;;5.30;4.80;;;;;;;;;;5040309;28;20178;-84
2021/08/05 07:15:36;;;;;;;8.02;5.50;;;;;;;;;;5038434;28;20174;-83
2021/08/05 07:18:02;;;;;;;5.60;5.00;;;;;;;;;;5033200;28;20674;-84
2021/08/05 07:20:28;;;;;;;6.00;5.40;;;;;;;;;;5034496;28;20483;-83
2021/08/05 07:22:54;;;;;;;5.28;4.78;;;;;;;;;;5044877;28;20197;-84
2021/08/05 07:25:21;;;;;;;5.55;4.80;;;;;;;;;;5033114;28;20182;-84
2021/08/05 07:27:48;;;;;;;6.70;6.00;;;;;;;;;;5045087;28;20174;-83
2021/08/05 07:30:15;;;;;;;9.48;6.50;;;;;;;;;;5041267;28;20198;-83
2021/08/05 07:32:41;;;;;;;5.93;5.32;;;;;;;;;;5045173;28;20538;-83
2021/08/05 07:35:07;;;;;;;6.82;6.22;;;;;;;;;;5048166;28;20600;-84
2021/08/05 07:37:33;;;;;;;6.30;5.28;;;;;;;;;;5036728;28;20178;-84
2021/08/05 07:39:59;;;;;;;6.55;5.95;;;;;;;;;;5044070;28;20192;-83
2021/08/05 07:42:25;;;;;;;7.30;5.82;;;;;;;;;;5039170;28;20187;-84
2021/08/05 07:44:52;;;;;;;7.05;4.82;;;;;;;;;;5037841;28;20185;-83
2021/08/05 07:47:19;;;;;;;7.43;6.30;;;;;;;;;;5047114;28;20211;-84
2021/08/05 07:49:45;;;;;;;5.97;5.43;;;;;;;;;;5041514;28;20199;-84
2021/08/05 07:52:11;;;;;;;8.40;6.35;;;;;;;;;;5033102;28;20181;-84
2021/08/05 07:54:37;;;;;;;6.50;5.90;;;;;;;;;;5043444;28;20189;-84
2021/08/05 07:57:03;;;;;;;8.52;5.75;;;;;;;;;;5040314;28;20193;-84
2021/08/05 07:59:29;;;;;;;6.07;5.47;;;;;;;;;;5032647;28;20239;-83
2021/08/05 08:01:55;;;;;;;9.73;6.27;;;;;;;;;;5029640;28;20179;-83
2021/08/05 08:04:21;;;;;;;7.95;6.93;;;;;;;;;;5030531;28;20389;-82
2021/08/05 08:06:47;;;;;;;8.02;5.80;;;;;;;;;;5044563;28;20176;-84
2021/08/05 08:09:13;;;;;;;6.90;6.15;;;;;;;;;;5043962;28;20241;-84
2021/08/05 08:11:39;;;;;;;7.70;4.80;;;;;;;;;;5043683;28;20256;-83
2021/08/05 08:14:05;;;;;;;6.57;5.37;;;;;;;;;;5042574;28;20463;-83
2021/08/05 08:16:31;;;;;;;7.77;5.30;;;;;;;;;;5029549;28;20511;-84
2021/08/05 08:18:58;;;;;;;5.10;4.70;;;;;;;;;;5044569;28;20465;-84
2021/08/05 08:21:24;;;;;;;5.68;5.05;;;;;;;;;;5038664;28;20547;-85
2021/08/05 08:23:50;;;;;;;5.35;4.85;;;;;;;;;;5036724;28;20175;-84
2021/08/05 08:26:16;;;;;;;6.20;5.60;;;;;;;;;;5044367;28;20742;-85
2021/08/05 08:28:42;;;;;;;6.20;5.60;;;;;;;;;;5028265;28;20533;-84
2021/08/05 08:31:08;;;;;;;7.40;5.40;;;;;;;;;;5032560;28;20250;-84
2021/08/05 08:33:34;;;;;;;6.93;5.95;;;;;;;;;;5034705;28;20536;-83
2021/08/05 08:36:00;;;;;;;6.95;4.90;;;;;;;;;;5032993;28;20188;-84
2021/08/05 08:38:26;;;;;;;5.22;4.47;;;;;;;;;;5031975;28;20175;-84
2021/08/05 08:40:54;;;;;;;5.75;5.18;;;;;;;;;;5027815;28;21008;-83
2021/08/05 08:43:20;;;;;;;8.05;5.10;;;;;;;;;;5028915;28;20183;-84
2021/08/05 08:45:48;;;;;;;5.20;4.70;;;;;;;;;;5032718;28;20214;-84
2021/08/05 08:48:14;;;;;;;8.27;4.65;;;;;;;;;;5034285;28;20453;-84
2021/08/05 08:50:41;;;;;;;6.53;5.18;;;;;;;;;;5033414;28;20203;-83
2021/08/05 08:53:08;;;;;;;6.75;5.13;;;;;;;;;;5027568;28;20535;-84
2021/08/05 08:55:35;;;;;;;4.97;3.65;;;;;;;;;;5054962;28;20229;-83
2021/08/05 08:58:02;;;;;;;4.78;4.28;;;;;;;;;;5044380;28;20190;-84
2021/08/05 09:00:30;;;;;;;7.28;4.97;;;;;;;;;;5045711;28;20251;-84
2021/08/05 09:02:56;;;;;;;4.97;4.32;;;;;;;;;;5045803;28;20263;-84
2021/08/05 09:05:23;;;;;;;5.27;4.77;;;;;;;;;;5045512;28;20215;-83
2021/08/05 09:07:49;;;;;;;5.40;3.47;;;;;;;;;;5026966;28;20423;-83
2021/08/05 09:10:15;;;;;;;4.70;4.23;;;;;;;;;;5040357;28;20201;-83
2021/08/05 09:12:42;;;;;;;4.60;4.00;;;;;;;;;;5042374;28;20423;-83
2021/08/05 09:15:09;;;;;;;4.93;4.20;;;;;;;;;;5039113;28;20622;-84
2021/08/05 09:17:39;;;;;;;4.13;3.83;;;;;;;;;;5033955;28;20281;-83
2021/08/05 09:20:09;;;;;;;5.65;4.78;;;;;;;;;;5030352;28;20189;-84
2021/08/05 09:22:38;;;;;;;3.83;3.43;;;;;;;;;;5035309;28;20178;-84
2021/08/05 09:25:23;;;;;;;5.88;4.40;;;;;;;;;;5045906;28;20379;-82
2021/08/05 09:27:50;;;;;;;4.30;3.73;;;;;;;;;;5042355;28;20739;-84
2021/08/05 09:30:33;;;;;;;4.07;3.50;;;;;;;;;;5045555;28;20993;-83
2021/08/05 09:33:06;;;;;;;4.47;3.73;;;;;;;;;;5047032;28;20410;-83
2021/08/05 09:35:32;;;;;;;4.27;3.17;;;;;;;;;;5042343;28;20418;-83
2021/08/05 09:38:17;;;;;;;4.73;2.97;;;;;;;;;;5048673;28;20467;-83
2021/08/05 09:40:44;;;;;;;3.20;2.90;;;;;;;;;;5044190;28;20410;-83
2021/08/05 09:43:10;;;;;;;2.40;2.20;;;;;;;;;;5036193;28;20423;-84
2021/08/05 09:45:36;;;;;;;2.70;2.20;;;;;;;;;;5035255;28;20433;-84
2021/08/05 09:48:03;;;;;;;2.50;2.30;;;;;;;;;;5035423;28;20759;-83
2021/08/05 09:50:29;;;;;;;2.80;2.07;;;;;;;;;;5036309;28;20464;-84
2021/08/05 09:53:11;;;;;;;2.30;2.10;;;;;;;;;;5031640;28;20413;-81
2021/08/05 09:55:37;;;;;;;3.00;2.33;;;;;;;;;;5042703;28;20438;-83
2021/08/05 09:58:05;;;;;;;2.20;1.93;;;;;;;;;;5055369;28;20496;-83
2021/08/05 10:00:44;;;;;;;3.07;2.87;;;;;;;;;;5058763;28;20402;-84
2021/08/05 10:03:11;;;;;;;2.70;2.50;;;;;;;;;;5042123;28;20426;-84
2021/08/05 10:05:37;;;;;;;2.60;2.40;;;;;;;;;;5036074;28;20403;-84
2021/08/05 10:08:04;;;;;;;3.27;2.73;;;;;;;;;;5031816;28;20411;-84
2021/08/05 10:10:48;;;;;;;3.87;2.50;;;;;;;;;;5046157;28;20460;-82
2021/08/05 10:13:26;;;;;;;3.30;3.00;;;;;;;;;;5048547;28;20391;-83
2021/08/05 10:15:52;;;;;;;2.80;2.53;;;;;;;;;;5037132;28;20993;-84
2021/08/05 10:18:18;;;;;;;2.60;2.40;;;;;;;;;;5041882;28;20464;-83
2021/08/05 10:20:44;;;;;;;2.60;2.40;;;;;;;;;;5046057;28;20433;-84
2021/08/05 10:23:10;;;;;;;3.40;2.97;;;;;;;;;;5046301;28;20460;-84
2021/08/05 10:25:38;;;;;;;3.10;2.80;;;;;;;;;;5030126;28;20513;-84
2021/08/05 10:28:04;;;;;;;2.77;2.20;;;;;;;;;;5049307;28;20474;-84
2021/08/05 10:30:30;;;;;;;2.70;2.50;;;;;;;;;;5038001;28;20508;-84
2021/08/05 10:32:57;;;;;;;3.03;2.50;;;;;;;;;;5034408;28;20506;-83
2021/08/05 10:35:23;;;;;;;2.50;2.30;;;;;;;;;;5031047;28;20462;-84
2021/08/05 10:37:50;;;;;;;3.30;2.50;;;;;;;;;;5030230;28;20423;-83
2021/08/05 10:40:16;;;;;;;2.07;1.93;;;;;;;;;;5035569;28;20814;-84
2021/08/05 10:42:43;;;;;;;2.57;2.37;;;;;;;;;;5042078;28;20447;-84
2021/08/05 10:45:09;;;;;;;2.67;1.90;;;;;;;;;;5043687;28;20446;-83
2021/08/05 10:47:36;;;;;;;2.23;1.90;;;;;;;;;;5043533;28;20486;-83
2021/08/05 10:50:03;;;;;;;2.57;2.37;;;;;;;;;;5046492;28;20439;-84
2021/08/05 10:52:38;;;;;;;2.60;2.13;;;;;;;;;;5026814;28;20391;-83
2021/08/05 10:55:04;;;;;;;2.30;2.10;;;;;;;;;;5046514;28;20412;-83
2021/08/05 10:57:30;;;;;;;2.63;1.83;;;;;;;;;;5047274;28;20403;-84
2021/08/05 10:59:57;;;;;;;2.73;2.17;;;;;;;;;;5046062;28;20437;-83
2021/08/05 11:02:42;;;;;;;2.30;2.10;;;;;;;;;;5046425;28;20471;-82
2021/08/05 11:05:08;;;;;;;1.93;1.80;;;;;;;;;;5030169;28;20411;-83
2021/08/05 11:07:34;;;;;;;2.10;1.90;;;;;;;;;;5041265;28;20416;-83
2021/08/05 11:10:18;;;;;;;3.20;1.93;;;;;;;;;;5044835;28;20465;-82
2021/08/05 11:12:45;;;;;;;2.50;2.27;;;;;;;;;;5044823;28;20525;-83
2021/08/05 11:15:26;;;;;;;2.73;2.50;;;;;;;;;;5042536;28;20926;-83
2021/08/05 11:18:08;;;;;;;3.77;2.10;;;;;;;;;;5034300;28;20473;-83
2021/08/05 11:20:34;;;;;;;2.33;2.13;;;;;;;;;;5047952;28;20437;-84
2021/08/05 11:23:01;;;;;;;3.80;2.37;;;;;;;;;;5029101;28;20435;-83
2021/08/05 11:25:46;;;;;;;2.80;2.00;;;;;;;;;;5045352;28;20430;-83
2021/08/05 11:28:23;;;;;;;2.00;1.90;;;;;;;;;;5060781;28;20421;-83
2021/08/05 11:30:52;;;;;;;3.50;1.83;;;;;;;;;;5043898;28;20439;-84
2021/08/05 11:33:40;;;;;;;2.20;2.00;;;;;;;;;;5045760;28;20410;-83
2021/08/05 11:39:02;;;;;;;3.53;2.10;;;;;;;;;;5046489;28;20413;-83
2021/08/05 11:41:47;;;;;;;1.80;1.70;;;;;;;;;;5043867;28;20450;-83
2021/08/05 11:44:41;;;;;;;2.10;1.83;;;;;;;;;;5045421;28;20404;-83
2021/08/05 11:47:09;;;;;;;2.40;2.00;;;;;;;;;;5023317;28;20434;-84
2021/08/05 11:49:38;;;;;;;2.40;2.20;;;;;;;;;;5002630;28;20394;-84
2021/08/05 11:52:14;;;;;;;2.87;1.83;;;;;;;;;;5023168;28;20443;-84
2021/08/05 11:54:51;;;;;;;2.00;1.77;;;;;;;;;;5022459;28;20432;-83
2021/08/05 11:57:20;;;;;;;1.73;1.63;;;;;;;;;;5022886;28;20443;-84
2021/08/05 11:59:52;;;;;;;4.30;2.20;;;;;;;;;;5024412;28;20397;-84
2021/08/05 12:02:19;;;;;;;1.93;1.83;;;;;;;;;;5039522;28;20429;-83
2021/08/05 12:04:46;;;;;;;2.20;2.00;;;;;;;;;;5022943;28;20411;-82
2021/08/05 12:07:22;;;;;;;2.43;2.03;;;;;;;;;;5001298;28;20421;-82
2021/08/05 12:09:55;;;;;;;2.27;2.07;;;;;;;;;;5013354;28;20438;-83
2021/08/05 12:12:22;;;;;;;1.77;1.67;;;;;;;;;;4990510;28;20486;-83
2021/08/05 12:15:00;;;;;;;1.70;1.60;;;;;;;;;;5012788;28;20444;-84
2021/08/05 12:17:44;;;;;;;1.70;1.60;;;;;;;;;;5022427;28;20506;-82
2021/08/05 12:20:12;;;;;;;2.00;1.80;;;;;;;;;;5022554;28;20442;-82
2021/08/05 12:22:40;;;;;;;1.57;1.47;;;;;;;;;;5021235;28;20502;-83
2021/08/05 12:25:10;;;;;;;2.30;1.70;;;;;;;;;;5047111;28;20409;-83
2021/08/05 12:27:36;;;;;;;3.17;2.17;;;;;;;;;;5045944;28;20413;-83
2021/08/05 12:30:07;;;;;;;1.67;1.50;;;;;;;;;;5046338;28;20547;-85
2021/08/05 12:32:33;;;;;;;1.63;1.37;;;;;;;;;;5044619;28;20440;-83
2021/08/05 12:34:59;;;;;;;1.60;1.50;;;;;;;;;;5029001;28;20435;-84
2021/08/05 12:37:26;;;;;;;1.60;1.50;;;;;;;;;;5029199;28;20448;-84
2021/08/05 12:39:52;;;;;;;3.97;1.50;;;;;;;;;;5044610;28;20965;-82
2021/08/05 12:42:18;;;;;;;1.67;1.57;;;;;;;;;;5046362;28;20475;-82
2021/08/05 12:44:45;;;;;;;1.57;1.47;;;;;;;;;;5042356;28;21073;-83
2021/08/05 12:47:12;;;;;;;1.63;1.53;;;;;;;;;;5027973;28;20443;-84
2021/08/05 12:49:39;;;;;;;2.40;1.80;;;;;;;;;;5027447;28;20418;-82
2021/08/05 12:52:06;;;;;;;1.67;1.37;;;;;;;;;;5045923;28;20432;-83
2021/08/05 12:54:32;;;;;;;1.50;1.40;;;;;;;;;;5038815;28;20490;-83
2021/08/05 12:56:59;;;;;;;1.63;1.30;;;;;;;;;;5036500;28;20437;-84
2021/08/05 12:59:40;;;;;;;1.20;1.10;;;;;;;;;;5046625;28;20423;-85
2021/08/05 13:02:07;;;;;;;3.80;1.27;;;;;;;;;;5027524;28;20432;-83
2021/08/05 13:04:35;;;;;;;1.60;1.50;;;;;;;;;;5050903;28;20437;-83
2021/08/05 13:07:02;;;;;;;1.63;1.53;;;;;;;;;;5032955;28;20608;-84
2021/08/05 13:09:29;;;;;;;4.03;1.67;;;;;;;;;;5031583;28;20924;-84
2021/08/05 13:11:56;;;;;;;1.50;1.40;;;;;;;;;;5033718;28;20563;-85
2021/08/05 13:14:28;;;;;;;1.67;1.40;;;;;;;;;;5044158;28;20532;-82
2021/08/05 13:17:07;;;;;;;1.20;1.07;;;;;;;;;;5026227;28;20457;-83
2021/08/05 13:19:52;;;;;;;1.43;1.20;;;;;;;;;;5043902;28;20424;-81
2021/08/05 13:22:19;;;;;;;1.00;1.00;;;;;;;;;;5028749;28;20425;-84
2021/08/05 13:24:58;;;;;;;1.40;1.30;;;;;;;;;;5033078;28;20476;-83
2021/08/05 13:27:24;;;;;;;1.80;1.70;;;;;;;;;;5039763;28;20481;-84
2021/08/05 13:29:52;;;;;;;2.63;1.47;;;;;;;;;;5045694;28;20433;-84
2021/08/05 13:32:19;;;;;;;2.00;1.37;;;;;;;;;;5045538;28;20436;-84
2021/08/05 13:34:58;;;;;;;1.60;1.50;;;;;;;;;;5041481;28;20420;-83
2021/08/05 13:37:31;;;;;;;1.50;1.30;;;;;;;;;;5027930;28;20830;-83
2021/08/05 13:40:01;;;;;;;2.00;1.80;;;;;;;;;;5032184;28;20433;-84
2021/08/05 13:42:27;;;;;;;1.60;1.50;;;;;;;;;;5040082;28;20440;-84
2021/08/05 13:44:54;;;;;;;2.47;2.10;;;;;;;;;;5045217;28;20471;-83
2021/08/05 13:47:20;;;;;;;1.83;1.70;;;;;;;;;;5045476;28;20447;-84
2021/08/05 13:49:47;;;;;;;2.43;1.43;;;;;;;;;;5040906;28;20428;-84
2021/08/05 13:52:13;;;;;;;1.50;1.40;;;;;;;;;;5030605;28;20421;-83
2021/08/05 13:54:40;;;;;;;1.83;1.63;;;;;;;;;;5031650;28;20459;-83
2021/08/05 13:57:06;;;;;;;1.23;1.13;;;;;;;;;;5036827;28;20433;-85
2021/08/05 13:59:32;;;;;;;2.03;1.53;;;;;;;;;;5044909;28;20431;-83
2021/08/05 14:01:59;;;;;;;1.40;1.30;;;;;;;;;;5026452;28;20471;-84
2021/08/05 14:04:27;;;;;;;2.10;1.40;;;;;;;;;;5041473;28;20418;-83
2021/08/05 14:06:53;;;;;;;1.60;1.50;;;;;;;;;;5032365;28;20452;-83
2021/08/05 14:09:18;;;;;;;2.67;1.50;;;;;;;;;;5038307;28;20437;-83
2021/08/05 14:11:45;;;;;;;2.27;1.43;;;;;;;;;;5044015;28;20464;-85
2021/08/05 14:14:11;;;;;;;2.23;1.97;;;;;;;;;;5027350;28;20430;-82
2021/08/05 14:16:43;;;;;;;1.60;1.50;;;;;;;;;;5027207;28;20948;-84
2021/08/05 14:19:10;;;;;;;1.77;1.67;;;;;;;;;;5034117;28;20482;-83
2021/08/05 14:21:35;;;;;;;2.40;1.73;;;;;;;;;;5036107;28;20430;-85
2021/08/05 14:24:01;;;;;;;2.20;2.00;;;;;;;;;;5035139;28;20440;-83
2021/08/05 14:26:27;;;;;;;1.90;1.57;;;;;;;;;;5036218;28;20434;-84
2021/08/05 14:28:53;;;;;;;3.07;2.00;;;;;;;;;;5046262;28;20511;-83
2021/08/05 14:31:20;;;;;;;2.13;1.40;;;;;;;;;;5048278;28;20467;-83
2021/08/05 14:33:46;;;;;;;1.50;1.40;;;;;;;;;;5036911;28;20508;-82
2021/08/05 14:36:12;;;;;;;2.03;1.80;;;;;;;;;;5037221;28;20490;-84
2021/08/05 14:38:39;;;;;;;1.70;1.60;;;;;;;;;;5036553;28;20469;-82
2021/08/05 14:41:05;;;;;;;1.97;1.73;;;;;;;;;;5045801;28;20464;-82
2021/08/05 14:43:31;;;;;;;2.07;1.60;;;;;;;;;;5029737;28;20394;-81
2021/08/05 14:45:57;;;;;;;1.60;1.50;;;;;;;;;;5046098;28;20463;-83
2021/08/05 14:48:23;;;;;;;1.70;1.60;;;;;;;;;;5047347;28;20452;-82
2021/08/05 14:50:49;;;;;;;2.63;2.00;;;;;;;;;;5048480;28;20608;-82